TAFOR
Diposting tanggal: 30 Agustus 2018

Pukul : 00 - 12 UTC

Isi :

TAF WAGI 162300Z 1700/1712 27007KT 8000 BKN012 TEMPO 1705/1709 18008KT 2000 TSRA FEW012CB BKN012=